Time;durP1;ratioP1;P1;durP2;ratioP2;P2;SDS_P1;SDS_P2;PMS_P1;PMS_P2;Temp;Humidity;BMP_temperature;BMP_pressure;BME280_temperature;BME280_humidity;BME280_pressure;Samples;Min_cycle;Max_cycle;Signal;HPM_P1;HPM_P2
2023/10/27 00:01:38;;;;;;;57.93;3.60;;;;;;;23.77;57.44;97263.13;7309427;19;129180;-38
2023/10/27 00:04:03;;;;;;;63.90;3.55;;;;;;;23.88;56.70;97284.25;7310454;19;129510;-38
2023/10/27 00:06:32;;;;;;;81.40;4.83;;;;;;;23.89;57.25;97285.88;7309163;19;129746;-37
2023/10/27 00:08:58;;;;;;;81.70;4.53;;;;;;;23.87;57.02;97277.41;7310477;19;130248;-37
2023/10/27 00:11:23;;;;;;;20.83;1.77;;;;;;;23.88;56.65;97275.59;7310669;19;129177;-36
2023/10/27 00:13:48;;;;;;;36.87;2.37;;;;;;;23.84;57.00;97275.22;7310359;19;128763;-37
2023/10/27 00:16:14;;;;;;;61.13;3.63;;;;;;;23.87;57.16;97266.09;7308891;19;128888;-37
2023/10/27 00:18:39;;;;;;;39.37;2.67;;;;;;;23.76;56.87;97248.41;7310573;19;130146;-37
2023/10/27 00:21:05;;;;;;;45.10;2.80;;;;;;;23.85;57.19;97261.06;7310190;19;129455;-37
2023/10/27 00:23:32;;;;;;;15.60;1.43;;;;;;;23.85;57.16;97274.19;7305988;19;129481;-37
2023/10/27 00:25:57;;;;;;;;;;;;;;;23.85;59.55;97268.16;7309993;19;129377;-38
2023/10/27 00:28:22;;;;;;;56.33;3.27;;;;;;;23.85;57.06;97268.94;7309950;19;130176;-36
2023/10/27 00:30:48;;;;;;;30.37;1.83;;;;;;;23.84;57.26;97266.53;7309998;19;131289;-37
2023/10/27 00:33:13;;;;;;;68.43;4.13;;;;;;;23.86;56.90;97264.50;7306770;19;129277;-37
2023/10/27 00:35:38;;;;;;;89.53;4.63;;;;;;;23.84;57.02;97267.34;7309286;19;129209;-36
2023/10/27 00:38:04;;;;;;;31.57;2.30;;;;;;;23.84;56.72;97261.28;7309450;19;129323;-36
2023/10/27 00:40:29;;;;;;;46.63;2.90;;;;;;;23.82;57.18;97253.63;7307453;19;130376;-38
2023/10/27 00:42:58;;;;;;;56.17;3.35;;;;;;;23.82;57.50;97243.13;7307567;19;129084;-37
2023/10/27 00:45:24;;;;;;;62.25;3.60;;;;;;;23.71;57.44;97229.88;7309363;19;128948;-37
2023/10/27 00:47:50;;;;;;;41.17;2.42;;;;;;;23.80;57.12;97245.13;7312066;19;130238;-38
2023/10/27 00:50:16;;;;;;;57.40;3.33;;;;;;;23.81;57.37;97235.47;7314927;19;129939;-37
2023/10/27 00:52:41;;;;;;;29.13;1.97;;;;;;;23.81;57.01;97228.41;7314857;19;129088;-37
2023/10/27 00:55:07;;;;;;;73.73;3.90;;;;;;;23.80;56.70;97232.03;7316556;19;129464;-38
2023/10/27 00:57:35;;;;;;;27.27;1.70;;;;;;;23.80;57.14;97224.16;7317360;19;128998;-38
2023/10/27 01:00:01;;;;;;;71.60;4.43;;;;;;;23.78;57.43;97218.34;7314866;19;129641;-38
2023/10/27 01:02:26;;;;;;;33.03;2.17;;;;;;;23.79;56.72;97208.63;7313737;19;129153;-38
2023/10/27 01:04:52;;;;;;;96.63;5.20;;;;;;;23.79;56.79;97198.13;7315443;19;129729;-36
2023/10/27 01:07:17;;;;;;;29.90;1.97;;;;;;;23.79;56.87;97195.50;7317514;19;129983;-38
2023/10/27 01:09:43;;;;;;;26.90;1.87;;;;;;;23.77;56.86;97190.47;7315430;19;130284;-34
2023/10/27 01:12:09;;;;;;;37.27;2.17;;;;;;;23.76;57.30;97186.25;7315091;19;129686;-37
2023/10/27 01:14:34;;;;;;;75.47;4.27;;;;;;;23.78;56.91;97184.22;7316330;19;130160;-37
2023/10/27 01:16:59;;;;;;;35.70;2.50;;;;;;;23.76;57.32;97181.00;7316700;19;129375;-37
2023/10/27 01:19:25;;;;;;;36.97;2.23;;;;;;;23.75;57.62;97171.50;7314464;19;131031;-37
2023/10/27 01:21:50;;;;;;;39.63;2.30;;;;;;;23.76;57.21;97165.25;7314712;19;129349;-37
2023/10/27 01:24:15;;;;;;;83.53;4.47;;;;;;;23.77;57.60;97172.09;7314009;19;129734;-37
2023/10/27 01:26:41;;;;;;;37.00;2.40;;;;;;;23.77;57.00;97174.72;7316791;19;129119;-37
2023/10/27 01:29:06;;;;;;;60.97;3.87;;;;;;;23.63;57.16;97160.09;7314194;19;129588;-38
2023/10/27 01:31:31;;;;;;;53.03;2.93;;;;;;;23.74;56.96;97183.03;7315066;19;129303;-37
2023/10/27 01:33:57;;;;;;;72.03;4.20;;;;;;;23.75;57.21;97173.34;7315457;19;129176;-37
2023/10/27 01:36:22;;;;;;;32.53;2.17;;;;;;;23.75;56.94;97178.59;7312973;19;129602;-37
2023/10/27 01:38:47;;;;;;;32.07;2.13;;;;;;;23.73;57.31;97181.44;7315408;19;130342;-38
2023/10/27 01:41:13;;;;;;;75.28;4.03;;;;;;;23.73;57.51;97176.19;7313768;19;129460;-37
2023/10/27 01:43:38;;;;;;;31.17;1.97;;;;;;;23.73;57.48;97175.38;7313661;19;129181;-35
2023/10/27 01:46:03;;;;;;;50.63;3.03;;;;;;;23.72;56.87;97171.94;7314152;19;129068;-36
2023/10/27 01:48:29;;;;;;;35.87;2.27;;;;;;;23.73;57.10;97168.31;7313308;19;129475;-36
2023/10/27 01:50:55;;;;;;;73.27;4.00;;;;;;;23.71;57.65;97166.91;7313987;19;129079;-36
2023/10/27 01:53:20;;;;;;;17.50;1.30;;;;;;;23.70;56.92;97166.09;7311489;19;129585;-38
2023/10/27 01:55:46;;;;;;;18.00;1.42;;;;;;;23.64;57.16;97145.97;7315363;19;129052;-37
2023/10/27 01:58:11;;;;;;;52.77;3.00;;;;;;;23.71;57.56;97162.47;7311348;19;130464;-37
2023/10/27 02:00:36;;;;;;;66.87;3.47;;;;;;;23.68;57.24;97162.91;7314310;19;129242;-35
2023/10/27 02:03:02;;;;;;;58.42;3.63;;;;;;;23.68;56.96;97157.66;7312135;19;129485;-37
2023/10/27 02:05:27;;;;;;;30.50;1.80;;;;;;;23.60;57.48;97150.00;7315695;19;130980;-38
2023/10/27 02:07:53;;;;;;;46.93;2.63;;;;;;;23.71;57.44;97167.72;7313812;19;129705;-37
2023/10/27 02:10:18;;;;;;;59.57;3.23;;;;;;;23.69;57.17;97177.59;7313387;19;129489;-37
2023/10/27 02:12:45;;;;;;;25.63;1.77;;;;;;;23.67;57.64;97176.22;7313547;19;129711;-37
2023/10/27 02:15:12;;;;;;;47.63;3.00;;;;;;;23.66;57.74;97180.66;7314733;19;130579;-38
2023/10/27 02:17:39;;;;;;;63.05;3.60;;;;;;;23.67;57.65;97177.00;7312942;19;130361;-37
2023/10/27 02:20:05;;;;;;;79.40;4.13;;;;;;;23.67;56.90;97171.75;7314453;19;129036;-36
2023/10/27 02:22:31;;;;;;;;;;;;;;;23.67;59.25;97171.75;7312982;19;129100;-36
2023/10/27 02:24:56;;;;;;;32.00;1.90;;;;;;;23.57;57.49;97157.53;7314461;19;129082;-38
2023/10/27 02:27:22;;;;;;;50.97;3.03;;;;;;;23.65;57.52;97176.41;7313986;19;129161;-37
2023/10/27 02:29:47;;;;;;;85.90;5.00;;;;;;;23.66;57.13;97177.22;7313331;19;129852;-37
2023/10/27 02:32:12;;;;;;;40.37;2.63;;;;;;;23.67;57.32;97171.75;7311817;19;129750;-37
2023/10/27 02:34:37;;;;;;;29.13;1.75;;;;;;;23.64;57.58;97172.19;7313793;19;130257;-37
2023/10/27 02:37:04;;;;;;;85.57;4.53;;;;;;;23.65;57.44;97170.38;7314119;19;129776;-38
2023/10/27 02:39:29;;;;;;;99.05;5.50;;;;;;;23.65;57.35;97168.53;7313837;19;129045;-36
2023/10/27 02:41:54;;;;;;;9.33;1.00;;;;;;;23.66;57.66;97178.03;7312613;19;129269;-38
2023/10/27 02:44:20;;;;;;;33.83;2.10;;;;;;;23.67;57.26;97176.22;7312638;19;129009;-37
2023/10/27 02:46:45;;;;;;;80.10;4.30;;;;;;;23.66;57.69;97179.84;7312121;19;130517;-37
2023/10/27 02:49:10;;;;;;;59.90;3.23;;;;;;;23.63;57.57;97170.59;7315058;19;131889;-37
2023/10/27 02:51:36;;;;;;;14.47;1.27;;;;;;;23.65;57.38;97171.16;7312662;19;130375;-38
2023/10/27 02:54:02;;;;;;;193.77;11.93;;;;;;;23.66;57.44;97169.34;7308066;19;129442;-34
2023/10/27 02:56:27;;;;;;;77.90;4.13;;;;;;;23.65;57.11;97162.50;7311944;19;130329;-36
2023/10/27 02:58:53;;;;;;;27.25;1.75;;;;;;;23.64;57.31;97156.44;7313950;19;129680;-38
2023/10/27 03:01:18;;;;;;;20.60;1.43;;;;;;;23.63;57.33;97157.47;7311046;19;129435;-37
2023/10/27 03:03:44;;;;;;;64.20;3.60;;;;;;;23.62;57.19;97149.81;7309952;19;130065;-38
2023/10/27 03:06:11;;;;;;;77.50;4.07;;;;;;;23.63;56.99;97154.03;7311039;19;129592;-37
2023/10/27 03:08:38;;;;;;;21.55;1.38;;;;;;;23.63;57.67;97167.97;7312555;19;130172;-37
2023/10/27 03:11:04;;;;;;;42.33;2.60;;;;;;;23.53;56.99;97149.25;7309066;19;128980;-38
2023/10/27 03:13:30;;;;;;;43.23;2.33;;;;;;;23.59;56.81;97153.66;7310232;19;130143;-37
2023/10/27 03:15:58;;;;;;;87.00;4.40;;;;;;;23.61;58.09;97150.81;7310623;19;129479;-35
2023/10/27 03:18:23;;;;;;;25.02;1.67;;;;;;;23.59;57.25;97155.47;7311668;19;128945;-38
2023/10/27 03:20:59;;;;;;;30.43;1.83;;;;;;;23.59;57.63;97147.59;7311897;19;128996;-36
2023/10/27 03:23:26;;;;;;;41.47;2.43;;;;;;;23.59;57.91;97143.16;7307298;19;129100;-36
2023/10/27 03:25:52;;;;;;;77.00;4.03;;;;;;;23.56;57.59;97138.34;7311807;19;129758;-38
2023/10/27 03:28:17;;;;;;;41.90;2.43;;;;;;;23.62;57.53;97147.19;7309726;19;129058;-38
2023/10/27 03:30:44;;;;;;;31.83;2.07;;;;;;;23.61;57.80;97145.56;7310491;19;129213;-36
2023/10/27 03:33:09;;;;;;;22.67;1.75;;;;;;;23.62;57.36;97137.50;7309359;19;129462;-37
2023/10/27 03:35:37;;;;;;;77.55;3.97;;;;;;;23.59;57.67;97126.59;7309763;19;129120;-36
2023/10/27 03:38:03;;;;;;;47.83;3.05;;;;;;;23.36;58.62;97111.44;7311655;19;129577;-37
2023/10/27 03:40:28;;;;;;;58.83;3.73;;;;;;;23.35;59.04;97125.56;7307668;19;129360;-37
2023/10/27 03:42:54;;;;;;;30.23;1.80;;;;;;;23.33;58.48;97127.59;7310385;19;130435;-37
2023/10/27 03:45:19;;;;;;;88.77;4.70;;;;;;;23.45;58.16;97125.91;7310498;19;130151;-36
2023/10/27 03:47:44;;;;;;;28.80;1.87;;;;;;;23.58;57.29;97125.03;7311642;19;128930;-37
2023/10/27 03:50:10;;;;;;;55.93;3.23;;;;;;;23.71;57.05;97125.72;7310072;19;130229;-36
2023/10/27 03:52:36;;;;;;;58.63;3.33;;;;;;;23.81;56.48;97128.69;7308793;19;131198;-37
2023/10/27 03:55:02;;;;;;;70.87;3.83;;;;;;;23.88;56.87;97126.81;7311283;19;131176;-35
2023/10/27 03:57:27;;;;;;;29.93;1.70;;;;;;;23.98;56.37;97132.41;7312531;19;129948;-38
2023/10/27 03:59:52;;;;;;;67.03;4.17;;;;;;;24.03;56.21;97127.31;7308590;19;129413;-37
2023/10/27 04:02:18;;;;;;;87.13;4.70;;;;;;;24.06;55.94;97119.03;7305917;19;129200;-37
2023/10/27 04:04:43;;;;;;;48.97;2.83;;;;;;;24.13;56.44;97129.47;7311511;19;129764;-37
2023/10/27 04:07:08;;;;;;;48.83;2.77;;;;;;;24.17;56.12;97118.31;7307819;19;128864;-38
2023/10/27 04:09:34;;;;;;;35.47;2.60;;;;;;;24.21;56.22;97116.84;7308943;19;128728;-36
2023/10/27 04:11:59;;;;;;;64.60;3.27;;;;;;;24.33;55.95;97120.38;7308227;19;130078;-37
2023/10/27 04:14:24;;;;;;;32.03;1.83;;;;;;;24.39;56.06;97124.75;7306793;19;129642;-38
2023/10/27 04:16:50;;;;;;;28.57;1.70;;;;;;;24.45;55.54;97112.59;7308581;19;129205;-36
2023/10/27 04:19:15;;;;;;;23.63;1.60;;;;;;;24.56;55.39;97113.72;7308266;19;129156;-38
2023/10/27 04:21:40;;;;;;;77.47;4.23;;;;;;;24.58;55.34;97119.56;7305807;19;130673;-36
2023/10/27 04:24:06;;;;;;;126.03;6.63;;;;;;;24.59;55.26;97114.06;7311427;19;130279;-37
2023/10/27 04:26:31;;;;;;;30.87;1.97;;;;;;;24.71;54.94;97114.97;7315352;19;128794;-37
2023/10/27 04:28:56;;;;;;;41.67;2.40;;;;;;;24.71;54.82;97103.66;7317281;19;129456;-37
2023/10/27 04:31:22;;;;;;;70.10;3.60;;;;;;;24.78;54.66;97107.00;7315901;19;129782;-37
2023/10/27 04:33:50;;;;;;;25.23;1.60;;;;;;;24.86;54.47;97098.84;7314308;19;131043;-38
2023/10/27 04:36:15;;;;;;;67.28;3.85;;;;;;;24.93;53.91;97095.09;7315716;19;129081;-38
2023/10/27 04:38:42;;;;;;;43.50;2.67;;;;;;;24.88;54.62;97102.03;7316894;19;129004;-37
2023/10/27 04:41:09;;;;;;;40.38;2.47;;;;;;;24.83;54.21;97104.50;7314791;19;131861;-36
2023/10/27 04:43:35;;;;;;;57.20;3.35;;;;;;;24.76;54.98;97095.94;7313417;19;130464;-35
2023/10/27 04:46:00;;;;;;;54.20;3.33;;;;;;;24.71;54.53;97108.91;7314637;19;129053;-36
2023/10/27 04:48:26;;;;;;;33.07;2.00;;;;;;;24.62;55.46;97099.69;7312197;19;129479;-37
2023/10/27 04:50:53;;;;;;;69.43;3.87;;;;;;;24.48;55.40;97095.59;7316448;19;129770;-36
2023/10/27 04:53:18;;;;;;;;;;;;;;;24.42;55.76;97098.09;7316465;19;130499;-38
2023/10/27 04:55:43;;;;;;;26.63;1.77;;;;;;;24.36;55.50;97096.31;7317935;19;129190;-37
2023/10/27 04:58:08;;;;;;;104.87;5.77;;;;;;;24.28;56.19;97095.78;7314386;19;129752;-35
2023/10/27 05:00:34;;;;;;;74.80;4.23;;;;;;;24.21;56.12;97090.59;7310426;19;130943;-38
2023/10/27 05:02:59;;;;;;;25.83;1.57;;;;;;;24.18;56.41;97091.03;7314915;19;130324;-36
2023/10/27 05:05:24;;;;;;;82.30;4.83;;;;;;;24.11;57.21;97089.50;7313951;19;130258;-35
2023/10/27 05:07:50;;;;;;;65.57;3.63;;;;;;;24.06;57.28;97092.78;7314412;19;129623;-37
2023/10/27 05:10:15;;;;;;;98.47;5.13;;;;;;;23.95;57.17;97080.31;7309385;19;130520;-35
2023/10/27 05:12:40;;;;;;;55.60;2.97;;;;;;;23.97;57.41;97090.59;7306802;19;129690;-38
2023/10/27 05:15:06;;;;;;;47.97;2.97;;;;;;;23.98;57.33;97092.25;7316013;19;129149;-37
2023/10/27 05:17:35;;;;;;;82.97;4.40;;;;;;;23.94;57.57;97094.47;7312642;19;129772;-37
2023/10/27 05:20:02;;;;;;;82.15;5.30;;;;;;;23.94;57.18;97091.03;7311066;19;129596;-35
2023/10/27 05:22:28;;;;;;;33.67;2.30;;;;;;;23.96;57.20;97087.19;7310928;19;130513;-37
2023/10/27 05:24:53;;;;;;;51.73;2.93;;;;;;;23.99;57.61;97085.97;7312724;19;129240;-35
2023/10/27 05:27:19;;;;;;;87.53;4.73;;;;;;;24.02;57.26;97077.66;7314784;19;129306;-38
2023/10/27 05:29:44;;;;;;;45.33;2.53;;;;;;;24.05;56.83;97080.66;7313623;19;129810;-37
2023/10/27 05:32:12;;;;;;;48.23;2.70;;;;;;;24.12;56.73;97073.53;7312976;19;129228;-36
2023/10/27 05:34:37;;;;;;;32.38;2.05;;;;;;;24.15;56.26;97078.34;7313147;19;129160;-38
2023/10/27 05:37:03;;;;;;;72.60;3.70;;;;;;;24.24;56.58;97073.63;7315203;19;129684;-36
2023/10/27 05:39:28;;;;;;;29.23;2.07;;;;;;;24.31;55.74;97075.16;7316425;19;131139;-37
2023/10/27 05:41:54;;;;;;;29.27;1.80;;;;;;;24.36;55.87;97075.31;7313726;19;131006;-37
2023/10/27 05:44:19;;;;;;;65.33;3.50;;;;;;;24.41;56.16;97078.06;7311338;19;129182;-38
2023/10/27 05:46:44;;;;;;;74.53;3.70;;;;;;;24.38;55.73;97067.19;7315606;19;129372;-36
2023/10/27 05:49:10;;;;;;;67.67;4.00;;;;;;;24.45;55.56;97074.00;7314836;19;130469;-38
2023/10/27 05:51:35;;;;;;;68.93;3.97;;;;;;;24.36;55.80;97062.16;7311727;19;130365;-38
2023/10/27 05:54:01;;;;;;;39.60;2.47;;;;;;;24.30;54.87;97067.50;7307849;19;131283;-38
2023/10/27 05:56:27;;;;;;;61.45;3.47;;;;;;;24.34;55.61;97084.44;7308228;19;131153;-37
2023/10/27 05:58:52;;;;;;;35.23;2.20;;;;;;;24.27;55.92;97084.50;7311598;19;130826;-36
2023/10/27 06:01:18;;;;;;;47.63;2.93;;;;;;;24.23;56.33;97088.56;7313749;19;129592;-37
2023/10/27 06:03:43;;;;;;;62.63;3.63;;;;;;;24.15;55.95;97085.41;7313296;19;129307;-38
2023/10/27 06:06:09;;;;;;;60.43;3.43;;;;;;;24.13;56.88;97080.38;7315017;19;129017;-37
2023/10/27 06:08:40;;;;;;;28.80;1.97;;;;;;;24.10;56.96;97093.94;7314785;19;129418;-37
2023/10/27 06:11:06;;;;;;;28.67;1.80;;;;;;;24.03;56.40;97093.19;7314365;19;130661;-37
2023/10/27 06:13:31;;;;;;;48.57;2.77;;;;;;;23.93;57.10;97077.09;7311994;19;129703;-38
2023/10/27 06:15:57;;;;;;;49.63;2.73;;;;;;;23.97;56.76;97091.41;7316569;19;129249;-37
2023/10/27 06:18:22;;;;;;;67.23;3.77;;;;;;;23.95;57.00;97096.06;7313135;19;130226;-38
2023/10/27 06:20:47;;;;;;;47.83;2.70;;;;;;;23.95;57.35;97090.81;7313508;19;130804;-38
2023/10/27 06:23:13;;;;;;;56.27;3.20;;;;;;;23.94;57.52;97096.28;7310109;19;129728;-37
2023/10/27 06:25:38;;;;;;;55.87;3.27;;;;;;;23.96;57.70;97089.00;7315839;19;128911;-37
2023/10/27 06:28:03;;;;;;;28.33;1.93;;;;;;;23.99;56.77;97084.16;7314011;19;129287;-37
2023/10/27 06:30:29;;;;;;;20.40;1.53;;;;;;;24.02;57.19;97088.97;7311848;19;129699;-35
2023/10/27 06:32:54;;;;;;;68.23;3.73;;;;;;;23.97;56.56;97070.41;7312791;19;128948;-37
2023/10/27 06:35:20;;;;;;;35.07;2.20;;;;;;;24.18;57.02;97098.13;7315761;19;128967;-38
2023/10/27 06:37:45;;;;;;;27.50;1.87;;;;;;;24.26;56.40;97093.38;7314170;19;129642;-36
2023/10/27 06:40:11;;;;;;;34.00;2.00;;;;;;;24.30;56.12;97101.63;7313141;19;129679;-38
2023/10/27 06:42:36;;;;;;;61.10;3.47;;;;;;;24.36;56.38;97098.94;7311064;19;128853;-37
2023/10/27 06:45:03;;;;;;;25.77;1.87;;;;;;;24.47;56.04;97100.06;7313708;19;128775;-36
2023/10/27 06:47:29;;;;;;;45.85;2.85;;;;;;;24.49;55.80;97104.06;7312948;19;130148;-38
2023/10/27 06:49:54;;;;;;;71.73;4.53;;;;;;;24.49;56.24;97104.06;7314528;19;130708;-38
2023/10/27 06:52:19;;;;;;;77.77;4.30;;;;;;;24.43;55.78;97098.88;7311766;19;128941;-37
2023/10/27 06:54:46;;;;;;;28.00;1.87;;;;;;;24.39;55.83;97103.75;7315143;19;129270;-38
2023/10/27 06:57:11;;;;;;;30.25;2.13;;;;;;;24.23;56.33;97088.56;7314041;19;129198;-37
2023/10/27 06:59:40;;;;;;;43.03;2.67;;;;;;;24.29;56.83;97100.84;7310971;19;129145;-37
2023/10/27 07:02:05;;;;;;;64.37;3.67;;;;;;;24.24;56.26;97110.38;7312228;19;128858;-36
2023/10/27 07:04:30;;;;;;;28.97;1.90;;;;;;;24.19;56.56;97103.16;7310109;19;129258;-38
2023/10/27 07:06:56;;;;;;;28.77;1.83;;;;;;;24.15;56.65;97095.91;7313250;19;129202;-36
2023/10/27 07:09:21;;;;;;;70.47;4.00;;;;;;;24.10;56.97;97093.94;7313544;19;130321;-38
2023/10/27 07:11:46;;;;;;;63.07;3.40;;;;;;;23.97;57.29;97075.66;7313146;19;129493;-37
2023/10/27 07:14:14;;;;;;;25.73;1.63;;;;;;;24.03;57.28;97087.94;7313307;19;129058;-37
2023/10/27 07:16:40;;;;;;;34.97;2.08;;;;;;;24.01;57.24;97100.50;7311829;19;130216;-38
2023/10/27 07:19:06;;;;;;;68.90;4.03;;;;;;;23.98;57.15;97100.91;7312165;19;131216;-36
2023/10/27 07:21:33;;;;;;;35.83;2.13;;;;;;;23.97;58.08;97096.66;7312331;19;129102;-36
2023/10/27 07:23:59;;;;;;;31.23;1.83;;;;;;;23.84;58.11;97078.41;7311232;19;128924;-36
2023/10/27 07:26:24;;;;;;;64.67;3.97;;;;;;;23.96;57.69;97102.94;7309692;19;129092;-37
2023/10/27 07:28:50;;;;;;;52.93;2.80;;;;;;;24.00;57.78;97093.63;7311972;19;129587;-38
2023/10/27 07:31:15;;;;;;;41.07;2.40;;;;;;;24.01;57.56;97103.13;7311926;19;129292;-36
2023/10/27 07:33:40;;;;;;;13.93;1.07;;;;;;;24.08;57.51;97098.59;7313185;19;129010;-37
2023/10/27 07:36:06;;;;;;;30.47;2.00;;;;;;;24.16;57.36;97095.69;7312259;19;130071;-38
2023/10/27 07:38:34;;;;;;;87.15;4.47;;;;;;;24.25;57.27;97099.66;7309624;19;129572;-38
2023/10/27 07:41:00;;;;;;;29.08;1.92;;;;;;;24.34;56.71;97103.63;7312246;19;129155;-37
2023/10/27 07:43:25;;;;;;;44.47;2.70;;;;;;;24.43;56.54;97094.44;7310116;19;129172;-38
2023/10/27 07:45:51;;;;;;;32.53;2.10;;;;;;;24.55;56.28;97099.75;7311561;19;129020;-37
2023/10/27 07:48:16;;;;;;;68.13;3.47;;;;;;;24.53;56.04;97099.16;7311353;19;129561;-36
2023/10/27 07:50:42;;;;;;;20.67;1.57;;;;;;;24.55;55.68;97097.13;7311971;19;129125;-38
2023/10/27 07:53:08;;;;;;;33.30;1.87;;;;;;;24.53;56.07;97093.13;7310236;19;129817;-37
2023/10/27 07:55:33;;;;;;;46.92;2.90;;;;;;;24.51;55.86;97103.03;7312172;19;130361;-37
2023/10/27 07:57:59;;;;;;;69.43;3.60;;;;;;;24.43;56.03;97093.63;7310958;19;130274;-35
2023/10/27 08:00:24;;;;;;;65.60;3.60;;;;;;;24.38;56.80;97089.03;7310216;19;128759;-35
2023/10/27 08:02:52;;;;;;;33.80;1.93;;;;;;;24.29;56.36;97092.16;7309944;19;129495;-37
2023/10/27 08:05:17;;;;;;;35.42;1.95;;;;;;;24.26;56.53;97101.25;7311875;19;131058;-36
2023/10/27 08:07:44;;;;;;;57.80;3.13;;;;;;;24.20;57.60;97103.94;7312436;19;129637;-36
2023/10/27 08:10:09;;;;;;;26.13;1.70;;;;;;;24.14;57.31;97102.19;7312771;19;129604;-36
2023/10/27 08:12:35;;;;;;;8.30;0.87;;;;;;;24.09;56.85;97105.47;7309178;19;129186;-36
2023/10/27 08:15:05;;;;;;;54.37;3.27;;;;;;;24.08;57.22;97106.47;7311527;19;128964;-38
2023/10/27 08:17:31;;;;;;;70.80;3.83;;;;;;;24.04;57.45;97105.31;7310525;19;130229;-36
2023/10/27 08:19:57;;;;;;;51.70;3.65;;;;;;;24.01;58.00;97103.13;7311463;19;128875;-38
2023/10/27 08:22:22;;;;;;;55.10;3.03;;;;;;;24.01;57.34;97104.94;7309280;19;129180;-37
2023/10/27 08:24:47;;;;;;;28.07;1.83;;;;;;;23.99;57.42;97101.72;7307532;19;129605;-37
2023/10/27 08:27:13;;;;;;;55.87;2.97;;;;;;;23.96;57.61;97100.31;7310913;19;129788;-37
2023/10/27 08:29:38;;;;;;;35.60;2.23;;;;;;;23.96;58.02;97096.88;7310645;19;129074;-38
2023/10/27 08:32:03;;;;;;;48.00;2.73;;;;;;;23.98;57.79;97095.66;7308489;19;128921;-36
2023/10/27 08:34:29;;;;;;;68.57;3.77;;;;;;;24.04;57.66;97104.50;7308145;19;129347;-38
2023/10/27 08:36:54;;;;;;;36.10;2.23;;;;;;;24.11;57.40;97100.78;7310869;19;130364;-37
2023/10/27 08:39:20;;;;;;;27.13;1.93;;;;;;;24.21;56.68;97101.09;7310770;19;129484;-37
2023/10/27 08:41:46;;;;;;;33.57;1.90;;;;;;;24.32;56.52;97108.28;7309194;19;128655;-37
2023/10/27 08:44:12;;;;;;;73.82;3.80;;;;;;;24.41;56.48;97106.97;7307759;19;129392;-38
2023/10/27 08:46:37;;;;;;;28.10;1.65;;;;;;;24.46;56.36;97103.72;7309204;19;130323;-37
2023/10/27 08:49:03;;;;;;;32.87;2.10;;;;;;;24.52;55.90;97107.25;7310395;19;129799;-37
2023/10/27 08:51:29;;;;;;;43.40;2.53;;;;;;;24.59;55.85;97102.75;7308458;19;128835;-37
2023/10/27 08:53:55;;;;;;;68.43;3.63;;;;;;;24.58;55.94;97101.94;7309700;19;131435;-37
2023/10/27 08:56:20;;;;;;;47.57;2.73;;;;;;;24.56;56.39;97103.97;7309410;19;130346;-37
2023/10/27 08:58:51;;;;;;;33.37;2.00;;;;;;;24.49;55.93;97101.41;7309231;19;129354;-38
2023/10/27 09:01:17;;;;;;;28.38;1.88;;;;;;;24.31;56.64;97080.41;7309032;19;129006;-37
2023/10/27 09:04:11;;;;;;;69.70;3.60;;;;;;;24.32;57.25;97096.97;7308799;19;128980;-36
2023/10/27 09:06:38;;;;;;;81.65;4.40;;;;;;;24.33;57.04;97098.56;7308495;19;129380;-37
2023/10/27 09:09:05;;;;;;;;;;;;;;;24.27;57.18;97099.44;7311112;19;129413;-38
2023/10/27 09:11:45;;;;;;;43.33;2.50;;;;;;;24.25;56.86;97086.53;7316544;19;129023;-37
2023/10/27 09:14:30;;;;;;;4.65;0.68;;;;;;;24.17;57.68;97093.88;7317842;19;130316;-37
2023/10/27 09:17:10;;;;;;;29.13;1.73;;;;;;;24.00;57.89;97074.44;7316870;19;130368;-37
2023/10/27 09:19:36;;;;;;;33.60;2.10;;;;;;;24.09;57.55;97097.59;7315530;19;130173;-38
2023/10/27 09:22:05;;;;;;;44.33;2.60;;;;;;;24.03;57.35;97092.41;7314550;19;129374;-38
2023/10/27 09:24:30;;;;;;;73.88;3.80;;;;;;;24.02;57.98;97102.09;7314965;19;130198;-38
2023/10/27 09:26:57;;;;;;;32.27;1.90;;;;;;;23.96;57.86;97102.94;7317674;19;129614;-38
2023/10/27 09:29:24;;;;;;;30.75;1.85;;;;;;;23.94;58.42;97102.34;7315484;19;129077;-37
2023/10/27 09:31:50;;;;;;;19.13;1.25;;;;;;;23.95;58.20;97100.50;7313043;19;129509;-36
2023/10/27 09:34:26;;;;;;;51.30;2.97;;;;;;;23.97;58.04;97093.22;7315796;19;130111;-36
2023/10/27 09:36:59;;;;;;;29.45;1.77;;;;;;;24.03;57.73;97101.06;7316716;19;130269;-36
2023/10/27 09:39:25;;;;;;;29.60;1.95;;;;;;;24.12;57.93;97102.41;7316922;19;129530;-38
2023/10/27 09:42:00;;;;;;;38.17;2.13;;;;;;;24.23;57.18;97099.06;7313358;19;129460;-37
2023/10/27 09:44:40;;;;;;;45.50;2.67;;;;;;;24.27;57.51;97100.25;7313808;19;129466;-37
2023/10/27 09:47:13;;;;;;;42.28;2.45;;;;;;;24.36;57.22;97109.44;7315764;19;130485;-37
2023/10/27 09:49:39;;;;;;;64.07;3.45;;;;;;;24.48;57.10;97097.19;7315922;19;129561;-36
2023/10/27 09:52:12;;;;;;;17.92;1.20;;;;;;;24.53;56.38;97103.63;7314612;19;129482;-38
2023/10/27 09:54:38;;;;;;;24.30;1.63;;;;;;;24.62;55.52;97102.31;7313163;19;129536;-37
2023/10/27 09:57:04;;;;;;;35.83;2.03;;;;;;;24.65;56.60;97102.69;7314906;19;129566;-38
2023/10/27 09:59:30;;;;;;;76.40;4.15;;;;;;;24.64;55.96;97105.53;7315043;19;128904;-36
2023/10/27 10:02:00;;;;;;;30.33;1.70;;;;;;;24.57;56.09;97100.34;7314802;19;128958;-37
2023/10/27 10:04:56;;;;;;;44.65;2.58;;;;;;;24.41;56.43;97091.22;7312286;19;131378;-35
2023/10/27 10:07:31;;;;;;;30.42;1.85;;;;;;;24.27;57.31;97078.44;7315407;19;130352;-35
2023/10/27 10:09:59;;;;;;;61.60;3.95;;;;;;;24.34;57.50;97095.75;7314734;19;128964;-37
2023/10/27 10:12:24;;;;;;;28.85;2.05;;;;;;;24.21;56.89;97080.09;7312875;19;128997;-35
2023/10/27 10:14:50;;;;;;;63.30;3.43;;;;;;;24.25;56.98;97097.03;7315008;19;130902;-37
2023/10/27 10:17:38;;;;;;;28.48;1.67;;;;;;;24.17;57.00;97091.25;7314003;19;130833;-37
2023/10/27 10:20:05;;;;;;;56.15;3.92;;;;;;;24.13;57.73;97101.38;7314680;19;128896;-37
2023/10/27 10:22:57;;;;;;;42.95;2.63;;;;;;;24.08;58.18;97098.59;7314321;19;129645;-36
2023/10/27 10:25:26;;;;;;;30.40;1.83;;;;;;;24.07;58.12;97097.00;7314225;19;130765;-36
2023/10/27 10:28:07;;;;;;;16.52;1.10;;;;;;;24.02;58.35;97096.03;7312613;19;130376;-37
2023/10/27 10:30:48;;;;;;;43.88;2.63;;;;;;;23.99;58.35;97105.16;7313149;19;128757;-35
2023/10/27 10:33:16;;;;;;;41.55;2.38;;;;;;;23.97;58.20;97099.28;7311768;19;130931;-37
2023/10/27 10:35:46;;;;;;;81.47;4.22;;;;;;;24.02;57.89;97099.47;7314853;19;130257;-36
2023/10/27 10:38:23;;;;;;;35.35;2.08;;;;;;;24.01;58.46;97100.50;7314764;19;130188;-37
2023/10/27 10:40:59;;;;;;;35.50;2.28;;;;;;;23.96;58.03;97076.69;7312268;19;129125;-37
2023/10/27 10:43:36;;;;;;;28.27;1.83;;;;;;;24.16;57.87;97100.16;7312685;19;129418;-37
2023/10/27 10:46:04;;;;;;;27.27;1.83;;;;;;;24.27;57.74;97099.44;7314016;19;130102;-34
2023/10/27 10:48:32;;;;;;;68.20;3.75;;;;;;;24.23;57.07;97083.31;7313506;19;130349;-37
2023/10/27 10:51:04;;;;;;;39.40;2.30;;;;;;;24.41;56.43;97091.22;7312454;19;129053;-36
2023/10/27 10:53:30;;;;;;;43.28;2.47;;;;;;;24.51;56.23;97095.94;7311374;19;128772;-36
2023/10/27 10:55:59;;;;;;;;;;;;;;;24.59;56.05;97098.31;7314771;19;130668;-37
2023/10/27 10:58:25;;;;;;;18.05;1.23;;;;;;;24.62;56.65;97097.88;7313158;19;129300;-37
2023/10/27 11:00:52;;;;;;;82.97;4.10;;;;;;;24.51;56.41;97076.78;7312863;19;129864;-36
2023/10/27 11:03:21;;;;;;;30.90;1.95;;;;;;;24.61;56.71;97101.50;7311203;19;128953;-36
2023/10/27 11:05:47;;;;;;;34.92;2.13;;;;;;;24.56;56.63;97095.31;7313461;19;130108;-35
2023/10/27 11:08:22;;;;;;;15.50;1.13;;;;;;;24.46;57.00;97096.59;7313032;19;130540;-37
2023/10/27 11:10:47;;;;;;;62.22;3.17;;;;;;;24.41;57.09;97093.84;7311679;19;129431;-36
2023/10/27 11:13:13;;;;;;;39.63;2.27;;;;;;;24.34;57.04;97090.50;7310078;19;129653;-35
2023/10/27 11:15:48;;;;;;;41.80;2.57;;;;;;;24.29;57.93;97087.72;7312323;19;129120;-37
2023/10/27 11:18:15;;;;;;;26.17;1.58;;;;;;;24.25;57.40;97088.34;7312994;19;130251;-36